createdAt,value
2017-10-23T00:00:26.281Z,0
2017-10-23T00:01:40.438Z,0
2017-10-23T00:02:42.318Z,0
2017-10-23T00:03:44.205Z,0
2017-10-23T00:04:46.087Z,0
2017-10-23T00:05:47.911Z,0
2017-10-23T00:06:49.731Z,0
2017-10-23T00:07:51.611Z,0
2017-10-23T00:08:53.493Z,0
2017-10-23T00:09:55.373Z,0
2017-10-23T00:11:09.528Z,0
2017-10-23T00:12:11.406Z,0
2017-10-23T00:13:13.289Z,0
2017-10-23T00:14:15.174Z,0
2017-10-23T00:15:16.996Z,0
2017-10-23T00:16:18.815Z,0
2017-10-23T00:17:20.699Z,0
2017-10-23T00:18:22.576Z,0
2017-10-23T00:19:24.455Z,0
2017-10-23T00:20:38.610Z,0
2017-10-23T00:21:40.489Z,0
2017-10-23T00:22:42.374Z,0
2017-10-23T00:23:44.256Z,0
2017-10-23T00:24:46.077Z,0
2017-10-23T00:25:47.896Z,0
2017-10-23T00:26:49.777Z,0
2017-10-23T00:27:51.669Z,0
2017-10-23T00:28:53.545Z,0
2017-10-23T00:30:07.750Z,0
2017-10-23T00:31:09.621Z,0
2017-10-23T00:32:11.503Z,0
2017-10-23T00:33:13.381Z,0
2017-10-23T00:34:15.201Z,0
2017-10-23T00:35:17.032Z,0
2017-10-23T00:36:18.912Z,0
2017-10-23T00:37:20.787Z,0
2017-10-23T00:38:22.668Z,0
2017-10-23T00:39:36.825Z,0
2017-10-23T00:40:38.701Z,0
2017-10-23T00:41:40.580Z,0
2017-10-23T00:42:42.468Z,0
2017-10-23T00:43:44.291Z,0
2017-10-23T00:44:46.115Z,0
2017-10-23T00:45:47.998Z,0
2017-10-23T00:46:49.871Z,0
2017-10-23T00:47:51.749Z,0
2017-10-23T00:49:05.954Z,0
2017-10-23T00:50:07.829Z,0
2017-10-23T00:51:09.709Z,0
2017-10-23T00:52:11.587Z,0
2017-10-23T00:53:13.410Z,0
2017-10-23T00:54:15.233Z,0
2017-10-23T00:55:17.113Z,0
2017-10-23T00:56:18.990Z,0
2017-10-23T00:57:20.878Z,0
2017-10-23T00:58:35.082Z,0
2017-10-23T00:59:36.959Z,0
2017-10-23T01:00:38.845Z,0
2017-10-23T01:01:40.719Z,0
2017-10-23T01:02:42.538Z,0
2017-10-23T01:03:44.358Z,0
2017-10-23T01:04:46.244Z,0
2017-10-23T01:05:48.119Z,0
2017-10-23T01:06:50.007Z,0
2017-10-23T01:08:04.163Z,0
2017-10-23T01:09:06.047Z,0
2017-10-23T01:10:07.928Z,0
2017-10-23T01:11:09.807Z,0
2017-10-23T01:12:11.630Z,0
2017-10-23T01:13:13.452Z,0
2017-10-23T01:14:15.333Z,0
2017-10-23T01:15:17.211Z,0
2017-10-23T01:16:19.092Z,0
2017-10-23T01:17:33.251Z,0
2017-10-23T01:18:35.130Z,0
2017-10-23T01:19:37.010Z,0
2017-10-23T01:20:38.891Z,0
2017-10-23T01:21:40.713Z,0
2017-10-23T01:22:42.537Z,0
2017-10-23T01:23:44.410Z,0
2017-10-23T01:24:46.287Z,0
2017-10-23T01:25:48.176Z,0
2017-10-23T01:27:02.316Z,0
2017-10-23T01:28:04.193Z,0
2017-10-23T01:29:06.069Z,0
2017-10-23T01:30:07.944Z,0
2017-10-23T01:31:09.770Z,0
2017-10-23T01:32:11.590Z,0
2017-10-23T01:33:13.469Z,0
2017-10-23T01:34:15.346Z,0
2017-10-23T01:35:17.219Z,0
2017-10-23T01:36:31.372Z,0
2017-10-23T01:37:33.251Z,0
2017-10-23T01:38:35.127Z,0
2017-10-23T01:39:37.003Z,0
2017-10-23T01:40:38.823Z,0
2017-10-23T01:41:40.648Z,0
2017-10-23T01:42:42.521Z,0
2017-10-23T01:43:44.404Z,0
2017-10-23T01:44:46.276Z,0
2017-10-23T01:46:00.494Z,0
2017-10-23T01:47:02.368Z,0
2017-10-23T01:48:04.247Z,0
2017-10-23T01:49:06.138Z,0
2017-10-23T01:50:07.958Z,0
2017-10-23T01:51:09.777Z,0
2017-10-23T01:52:11.653Z,0
2017-10-23T01:53:13.528Z,0
2017-10-23T01:54:15.416Z,0
2017-10-23T01:55:29.579Z,0
2017-10-23T01:56:31.456Z,0
2017-10-23T01:57:33.335Z,0
2017-10-23T01:58:35.213Z,0
2017-10-23T01:59:37.037Z,0
2017-10-23T02:00:38.850Z,0
2017-10-23T02:01:40.729Z,0
2017-10-23T02:02:42.605Z,0
2017-10-23T02:03:44.480Z,0
2017-10-23T02:04:58.632Z,0
2017-10-23T02:06:00.508Z,0
2017-10-23T02:07:02.386Z,0
2017-10-23T02:08:04.273Z,0
2017-10-23T02:09:06.096Z,0
2017-10-23T02:10:07.916Z,0
2017-10-23T02:11:09.792Z,0
2017-10-23T02:12:11.671Z,0
2017-10-23T02:13:13.547Z,0
2017-10-23T02:14:27.710Z,0
2017-10-23T02:15:29.587Z,0
2017-10-23T02:16:31.474Z,0
2017-10-23T02:17:33.351Z,0
2017-10-23T02:18:35.183Z,0
2017-10-23T02:19:37.001Z,0
2017-10-23T02:20:38.880Z,0
2017-10-23T02:21:40.755Z,0
2017-10-23T02:22:42.633Z,0
2017-10-23T02:23:56.788Z,0
2017-10-23T02:24:58.674Z,0
2017-10-23T02:26:00.552Z,0
2017-10-23T02:27:02.441Z,0
2017-10-23T02:28:04.262Z,0
2017-10-23T02:29:06.080Z,0
2017-10-23T02:30:07.958Z,0
2017-10-23T02:31:09.865Z,0
2017-10-23T02:32:11.733Z,0
2017-10-23T02:33:25.929Z,0
2017-10-23T02:34:27.806Z,0
2017-10-23T02:35:29.685Z,0
2017-10-23T02:36:31.563Z,0
2017-10-23T02:37:33.383Z,0
2017-10-23T02:38:35.200Z,0
2017-10-23T02:39:37.077Z,0
2017-10-23T02:40:38.957Z,0
2017-10-23T02:41:40.834Z,0
2017-10-23T02:42:54.992Z,0
2017-10-23T02:43:56.892Z,0
2017-10-23T02:44:58.750Z,0
2017-10-23T02:46:00.626Z,0
2017-10-23T02:47:02.446Z,0
2017-10-23T02:48:04.264Z,0
2017-10-23T02:49:06.142Z,0
2017-10-23T02:50:08.019Z,0
2017-10-23T02:51:09.894Z,0
2017-10-23T02:52:24.057Z,0
2017-10-23T02:53:25.935Z,0
2017-10-23T02:54:27.813Z,0
2017-10-23T02:55:29.704Z,0
2017-10-23T02:56:31.524Z,0
2017-10-23T02:57:33.342Z,0
2017-10-23T02:58:35.224Z,0
2017-10-23T02:59:37.098Z,0
2017-10-23T03:00:38.987Z,0
2017-10-23T03:01:53.143Z,0
2017-10-23T03:02:55.019Z,0
2017-10-23T03:03:56.897Z,0
2017-10-23T03:04:58.778Z,0
2017-10-23T03:06:00.598Z,0
2017-10-23T03:07:02.420Z,0
2017-10-23T03:08:04.300Z,0
2017-10-23T03:09:06.174Z,0
2017-10-23T03:10:08.050Z,0
2017-10-23T03:11:22.202Z,0
2017-10-23T03:12:24.079Z,0
2017-10-23T03:13:25.956Z,0
2017-10-23T03:14:27.834Z,0
2017-10-23T03:15:29.649Z,0
2017-10-23T03:16:31.469Z,0
2017-10-23T03:17:33.347Z,0
2017-10-23T03:18:35.225Z,0
2017-10-23T03:19:37.103Z,0
2017-10-23T03:20:51.256Z,0
2017-10-23T03:21:53.132Z,0
2017-10-23T03:22:55.009Z,0
2017-10-23T03:23:56.898Z,0
2017-10-23T03:24:58.717Z,0
2017-10-23T03:26:00.535Z,0
2017-10-23T03:27:02.419Z,0
2017-10-23T03:28:04.293Z,0
2017-10-23T03:29:06.181Z,0
2017-10-23T03:30:20.348Z,0
2017-10-23T03:31:22.221Z,0
2017-10-23T03:32:24.102Z,0
2017-10-23T03:33:25.980Z,0
2017-10-23T03:34:27.800Z,0
2017-10-23T03:35:29.618Z,0
2017-10-23T03:36:31.457Z,0
2017-10-23T03:37:33.274Z,0
2017-10-23T03:38:35.111Z,0
2017-10-23T03:39:49.264Z,0
2017-10-23T03:40:51.141Z,0
2017-10-23T03:41:53.024Z,0
2017-10-23T03:42:54.901Z,0
2017-10-23T03:43:56.721Z,0
2017-10-23T03:44:58.539Z,0
2017-10-23T03:46:00.419Z,0
2017-10-23T03:47:02.297Z,0
2017-10-23T03:48:04.173Z,0
2017-10-23T03:49:18.326Z,0
2017-10-23T03:50:20.240Z,0
2017-10-23T03:51:22.142Z,0
2017-10-23T03:52:23.996Z,0
2017-10-23T03:53:25.816Z,0
2017-10-23T03:54:27.633Z,0
2017-10-23T03:55:29.509Z,0
2017-10-23T03:56:31.388Z,0
2017-10-23T03:57:33.265Z,0
2017-10-23T03:58:47.418Z,0
2017-10-23T03:59:49.297Z,0
2017-10-23T04:00:51.174Z,0
2017-10-23T04:01:53.053Z,0
2017-10-23T04:02:54.873Z,0
2017-10-23T04:03:56.692Z,0
2017-10-23T04:04:58.570Z,0
2017-10-23T04:06:00.456Z,0
2017-10-23T04:07:02.332Z,0
2017-10-23T04:08:16.481Z,0
2017-10-23T04:09:18.358Z,0
2017-10-23T04:10:20.235Z,0
2017-10-23T04:11:22.117Z,0
2017-10-23T04:12:23.932Z,0
2017-10-23T04:13:25.751Z,0
2017-10-23T04:14:27.627Z,0
2017-10-23T04:15:29.507Z,0
2017-10-23T04:16:31.383Z,0
2017-10-23T04:17:45.542Z,0
2017-10-23T04:18:47.416Z,0
2017-10-23T04:19:49.295Z,0
2017-10-23T04:20:51.173Z,0
2017-10-23T04:21:52.999Z,0
2017-10-23T04:22:54.812Z,0
2017-10-23T04:23:56.689Z,0
2017-10-23T04:24:58.565Z,0
2017-10-23T04:26:00.439Z,0
2017-10-23T04:27:14.600Z,0
2017-10-23T04:28:16.476Z,0
2017-10-23T04:29:18.350Z,0
2017-10-23T04:30:20.238Z,0
2017-10-23T04:31:22.061Z,0
2017-10-23T04:32:23.879Z,0
2017-10-23T04:33:25.759Z,0
2017-10-23T04:34:27.633Z,0
2017-10-23T04:35:29.507Z,0
2017-10-23T04:36:43.641Z,0
2017-10-23T04:37:45.458Z,0
2017-10-23T04:38:47.343Z,0
2017-10-23T04:39:49.220Z,0
2017-10-23T04:40:51.112Z,0
2017-10-23T04:41:52.938Z,0
2017-10-23T04:42:54.754Z,0
2017-10-23T04:43:56.645Z,0
2017-10-23T04:44:58.520Z,0
2017-10-23T04:46:12.737Z,0
2017-10-23T04:47:14.613Z,0
2017-10-23T04:48:16.514Z,0
2017-10-23T04:49:18.388Z,0
2017-10-23T04:50:20.207Z,0
2017-10-23T04:51:22.024Z,0
2017-10-23T04:52:23.912Z,0
2017-10-23T04:53:25.790Z,0
2017-10-23T04:54:27.667Z,0
2017-10-23T04:55:41.868Z,0
2017-10-23T04:56:43.745Z,0
2017-10-23T04:57:45.623Z,0
2017-10-23T04:58:47.502Z,0
2017-10-23T04:59:49.361Z,0
2017-10-23T05:00:51.180Z,0
2017-10-23T05:01:52.994Z,0
2017-10-23T05:02:54.872Z,0
2017-10-23T05:03:56.753Z,0
2017-10-23T05:05:10.962Z,0
2017-10-23T05:06:12.841Z,0
2017-10-23T05:07:14.721Z,0
2017-10-23T05:08:16.607Z,0
2017-10-23T05:09:18.429Z,0
2017-10-23T05:10:20.245Z,0
2017-10-23T05:11:22.125Z,0
2017-10-23T05:12:24.005Z,0
2017-10-23T05:13:25.885Z,0
2017-10-23T05:14:40.041Z,0
2017-10-23T05:15:41.922Z,0
2017-10-23T05:16:43.804Z,0
2017-10-23T05:17:45.696Z,0
2017-10-23T05:18:47.527Z,4
2017-10-23T05:19:49.344Z,4
2017-10-23T05:20:51.226Z,0
2017-10-23T05:21:53.122Z,4
2017-10-23T05:22:54.988Z,4
2017-10-23T05:24:09.227Z,8
2017-10-23T05:25:11.104Z,8
2017-10-23T05:26:12.964Z,16
2017-10-23T05:27:14.857Z,16
2017-10-23T05:28:16.671Z,20
2017-10-23T05:29:18.489Z,20
2017-10-23T05:30:20.375Z,20
2017-10-23T05:31:22.259Z,24
2017-10-23T05:32:24.150Z,20
2017-10-23T05:33:38.302Z,20
2017-10-23T05:34:40.187Z,20
2017-10-23T05:35:42.083Z,24
2017-10-23T05:36:43.954Z,24
2017-10-23T05:37:45.776Z,32
2017-10-23T05:38:47.593Z,32
2017-10-23T05:39:49.474Z,36
2017-10-23T05:40:51.358Z,48
2017-10-23T05:41:53.252Z,44
2017-10-23T05:43:07.390Z,44
2017-10-23T05:44:09.288Z,48
2017-10-23T05:45:11.155Z,52
2017-10-23T05:46:13.039Z,52
2017-10-23T05:47:14.859Z,56
2017-10-23T05:48:16.681Z,52
2017-10-23T05:49:18.564Z,56
2017-10-23T05:50:20.445Z,56
2017-10-23T05:51:22.329Z,56
2017-10-23T05:52:36.526Z,56
2017-10-23T05:53:38.406Z,52
2017-10-23T05:54:40.299Z,56
2017-10-23T05:55:42.188Z,48
2017-10-23T05:56:44.008Z,48
2017-10-23T05:57:45.828Z,52
2017-10-23T05:58:47.709Z,56
2017-10-23T05:59:49.609Z,64
2017-10-23T06:00:51.491Z,68
2017-10-23T06:02:05.651Z,76
2017-10-23T06:03:07.534Z,76
2017-10-23T06:04:09.436Z,88
2017-10-23T06:05:11.328Z,92
2017-10-23T06:06:13.150Z,104
2017-10-23T06:07:14.974Z,104
2017-10-23T06:08:16.858Z,116
2017-10-23T06:09:18.740Z,152
2017-10-23T06:10:20.661Z,184
2017-10-23T06:11:34.815Z,240
2017-10-23T06:12:36.697Z,292
2017-10-23T06:13:38.584Z,352
2017-10-23T06:14:40.470Z,424
2017-10-23T06:15:42.291Z,516
2017-10-23T06:16:44.116Z,640
2017-10-23T06:17:46.000Z,712
2017-10-23T06:18:47.885Z,764
2017-10-23T06:19:49.773Z,820
2017-10-23T06:21:03.972Z,864
2017-10-23T06:22:05.867Z,876
2017-10-23T06:23:07.752Z,896
2017-10-23T06:24:09.636Z,964
2017-10-23T06:25:11.459Z,1036
2017-10-23T06:26:13.284Z,1088
2017-10-23T06:27:15.172Z,1184
2017-10-23T06:28:17.056Z,1256
2017-10-23T06:29:18.941Z,1312
2017-10-23T06:30:33.097Z,1420
2017-10-23T06:31:34.982Z,1484
2017-10-23T06:32:36.868Z,1548
2017-10-23T06:33:38.754Z,1552
2017-10-23T06:34:40.585Z,1488
2017-10-23T06:35:42.408Z,1444
2017-10-23T06:36:44.296Z,1472
2017-10-23T06:37:46.180Z,1464
2017-10-23T06:38:48.068Z,1556
2017-10-23T06:40:02.226Z,1596
2017-10-23T06:41:04.112Z,1536
2017-10-23T06:42:06.401Z,1532
2017-10-23T06:43:08.255Z,1532
2017-10-23T06:44:10.102Z,1496
2017-10-23T06:45:11.922Z,1500
2017-10-23T06:46:13.821Z,1656
2017-10-23T06:47:15.704Z,1904
2017-10-23T06:48:17.587Z,2140
2017-10-23T06:49:31.793Z,2300
2017-10-23T06:50:33.679Z,2352
2017-10-23T06:51:35.569Z,2472
2017-10-23T06:52:37.463Z,2528
2017-10-23T06:53:39.287Z,2580
2017-10-23T06:54:41.111Z,2660
2017-10-23T06:55:43.001Z,2716
2017-10-23T06:56:44.886Z,2776
2017-10-23T06:57:46.785Z,2820
2017-10-23T06:59:00.957Z,2848
2017-10-23T07:00:02.845Z,2852
2017-10-23T07:01:04.727Z,2876
2017-10-23T07:02:06.618Z,2868
2017-10-23T07:03:08.444Z,2924
2017-10-23T07:04:10.268Z,2948
2017-10-23T07:05:12.154Z,3016
2017-10-23T07:06:14.052Z,3056
2017-10-23T07:07:15.931Z,3092
2017-10-23T07:08:30.096Z,3164
2017-10-23T07:09:31.983Z,3232
2017-10-23T07:10:33.884Z,3332
2017-10-23T07:11:35.762Z,3356
2017-10-23T07:12:37.579Z,3380
2017-10-23T07:13:39.402Z,3476
2017-10-23T07:14:41.289Z,3524
2017-10-23T07:15:43.180Z,3652
2017-10-23T07:16:45.068Z,3764
2017-10-23T07:17:59.231Z,3884
2017-10-23T07:19:01.116Z,3932
2017-10-23T07:20:03.016Z,3888
2017-10-23T07:21:04.913Z,3736
2017-10-23T07:22:06.742Z,3792
2017-10-23T07:23:08.572Z,3840
2017-10-23T07:24:10.461Z,3748
2017-10-23T07:25:12.345Z,3684
2017-10-23T07:26:14.234Z,3524
2017-10-23T07:27:28.394Z,3240
2017-10-23T07:28:30.281Z,2932
2017-10-23T07:29:32.172Z,2968
2017-10-23T07:30:34.071Z,3100
2017-10-23T07:31:35.895Z,2992
2017-10-23T07:32:37.725Z,2772
2017-10-23T07:33:39.558Z,2768
2017-10-23T07:34:41.373Z,2584
2017-10-23T07:35:43.198Z,2416
2017-10-23T07:36:57.358Z,2212
2017-10-23T07:37:59.242Z,2260
2017-10-23T07:39:01.128Z,2688
2017-10-23T07:40:03.020Z,3124
2017-10-23T07:41:04.850Z,3064
2017-10-23T07:42:06.670Z,3032
2017-10-23T07:43:08.556Z,2916
2017-10-23T07:44:10.442Z,2664
2017-10-23T07:45:12.336Z,2904
2017-10-23T07:46:26.495Z,2656
2017-10-23T07:47:28.395Z,2608
2017-10-23T07:48:30.272Z,2872
2017-10-23T07:49:32.162Z,3636
2017-10-23T07:50:33.989Z,3148
2017-10-23T07:51:35.814Z,2944
2017-10-23T07:52:37.708Z,3092
2017-10-23T07:53:39.591Z,3488
2017-10-23T07:54:41.486Z,3844
2017-10-23T07:55:55.684Z,3412
2017-10-23T07:56:57.602Z,3292
2017-10-23T07:57:59.536Z,3244
2017-10-23T07:59:01.455Z,3628
2017-10-23T08:00:03.285Z,4048
2017-10-23T08:01:05.104Z,4132
2017-10-23T08:02:06.997Z,4756
2017-10-23T08:03:08.880Z,5156
2017-10-23T08:04:10.765Z,4680
2017-10-23T08:05:24.934Z,4968
2017-10-23T08:06:26.824Z,4936
2017-10-23T08:07:28.707Z,4980
2017-10-23T08:08:30.609Z,4904
2017-10-23T08:09:32.434Z,4276
2017-10-23T08:10:34.260Z,4264
2017-10-23T08:11:36.151Z,4988
2017-10-23T08:12:38.046Z,4868
2017-10-23T08:13:39.935Z,4652
2017-10-23T08:14:54.105Z,4572
2017-10-23T08:15:56.377Z,4604
2017-10-23T08:16:58.316Z,3840
2017-10-23T08:18:00.180Z,3736
2017-10-23T08:19:02.028Z,4172
2017-10-23T08:20:03.876Z,3540
2017-10-23T08:21:05.746Z,3368
2017-10-23T08:22:07.654Z,3476
2017-10-23T08:23:09.556Z,3808
2017-10-23T08:24:23.701Z,4160
2017-10-23T08:25:25.591Z,4516
2017-10-23T08:26:27.839Z,5140
2017-10-23T08:27:30.097Z,4884
2017-10-23T08:28:31.961Z,5648
2017-10-23T08:29:33.784Z,5960
2017-10-23T08:30:35.682Z,5920
2017-10-23T08:31:37.558Z,6004
2017-10-23T08:32:39.449Z,6328
2017-10-23T08:33:53.617Z,5896
2017-10-23T08:34:55.438Z,6200
2017-10-23T08:35:57.272Z,6492
2017-10-23T08:36:59.161Z,5828
2017-10-23T08:38:01.054Z,5256
2017-10-23T08:39:02.918Z,5080
2017-10-23T08:40:04.743Z,6024
2017-10-23T08:41:06.565Z,6496
2017-10-23T08:42:08.451Z,7324
2017-10-23T08:43:22.675Z,6860
2017-10-23T08:44:24.565Z,7000
2017-10-23T08:45:26.452Z,7592
2017-10-23T08:46:28.351Z,6720
2017-10-23T08:47:30.179Z,7580
2017-10-23T08:48:32.053Z,8588
2017-10-23T08:49:33.984Z,8264
2017-10-23T08:50:35.871Z,8012
2017-10-23T08:51:37.758Z,8492
2017-10-23T08:52:51.929Z,6904
2017-10-23T08:53:53.814Z,6716
2017-10-23T08:54:55.704Z,6816
2017-10-23T08:55:57.594Z,7236
2017-10-23T08:56:59.419Z,7756
2017-10-23T08:58:01.245Z,7448
2017-10-23T08:59:03.133Z,6188
2017-10-23T09:00:05.020Z,5372
2017-10-23T09:01:06.915Z,5144
2017-10-23T09:02:21.069Z,5616
2017-10-23T09:03:22.956Z,5800
2017-10-23T09:04:24.843Z,6936
2017-10-23T09:05:26.730Z,6644
2017-10-23T09:06:28.556Z,6280
2017-10-23T09:07:30.380Z,6224
2017-10-23T09:08:32.269Z,5464
2017-10-23T09:09:34.156Z,5080
2017-10-23T09:10:36.042Z,4732
2017-10-23T09:11:50.203Z,5616
2017-10-23T09:12:52.087Z,5980
2017-10-23T09:13:53.971Z,6084
2017-10-23T09:14:55.859Z,6252
2017-10-23T09:15:57.686Z,5604
2017-10-23T09:16:59.510Z,5412
2017-10-23T09:18:01.394Z,5504
2017-10-23T09:19:03.282Z,4980
2017-10-23T09:20:05.167Z,5904
2017-10-23T09:21:19.326Z,6052
2017-10-23T09:22:21.212Z,6468
2017-10-23T09:23:23.096Z,6224
2017-10-23T09:24:24.983Z,6284
2017-10-23T09:25:26.809Z,6804
2017-10-23T09:26:28.637Z,7060
2017-10-23T09:27:30.524Z,7080
2017-10-23T09:28:32.408Z,7360
2017-10-23T09:29:34.291Z,7856
2017-10-23T09:30:48.461Z,7576
2017-10-23T09:31:50.347Z,8200
2017-10-23T09:32:52.232Z,8148
2017-10-23T09:33:54.313Z,8300
2017-10-23T09:34:56.141Z,7892
2017-10-23T09:35:57.965Z,7456
2017-10-23T09:36:59.850Z,7672
2017-10-23T09:38:01.738Z,7624
2017-10-23T09:39:03.633Z,8380
2017-10-23T09:40:17.793Z,8796
2017-10-23T09:41:19.684Z,8520
2017-10-23T09:42:21.567Z,8272
2017-10-23T09:43:23.467Z,7332
2017-10-23T09:44:25.281Z,6608
2017-10-23T09:45:27.106Z,6348
2017-10-23T09:46:28.992Z,6140
2017-10-23T09:47:30.876Z,6556
2017-10-23T09:48:32.764Z,7480
2017-10-23T09:49:46.923Z,7852
2017-10-23T09:50:48.808Z,8448
2017-10-23T09:51:50.694Z,7580
2017-10-23T09:52:52.584Z,6992
2017-10-23T09:53:54.410Z,7168
2017-10-23T09:54:56.234Z,7976
2017-10-23T09:55:58.119Z,6724
2017-10-23T09:57:00.007Z,6720
2017-10-23T09:58:01.892Z,7332
2017-10-23T09:59:16.050Z,6748
2017-10-23T10:00:17.943Z,7048
2017-10-23T10:01:19.823Z,7944
2017-10-23T10:02:21.723Z,8032
2017-10-23T10:03:23.551Z,7436
2017-10-23T10:04:25.376Z,7272
2017-10-23T10:05:27.263Z,6628
2017-10-23T10:06:29.148Z,6640
2017-10-23T10:07:31.045Z,6804
2017-10-23T10:08:45.208Z,6236
2017-10-23T10:09:47.090Z,6364
2017-10-23T10:10:48.976Z,6600
2017-10-23T10:11:50.859Z,7148
2017-10-23T10:12:52.687Z,8156
2017-10-23T10:13:54.513Z,9156
2017-10-23T10:14:56.400Z,9636
2017-10-23T10:15:58.286Z,9380
2017-10-23T10:17:00.172Z,8652
2017-10-23T10:18:14.330Z,7536
2017-10-23T10:19:16.215Z,7264
2017-10-23T10:20:18.098Z,7604
2017-10-23T10:21:19.984Z,7812
2017-10-23T10:22:21.807Z,7696
2017-10-23T10:23:23.639Z,7084
2017-10-23T10:24:25.519Z,6548
2017-10-23T10:25:27.406Z,6376
2017-10-23T10:26:29.291Z,6024
2017-10-23T10:27:43.450Z,5544
2017-10-23T10:28:45.335Z,5444
2017-10-23T10:29:47.220Z,5116
2017-10-23T10:30:49.106Z,4836
2017-10-23T10:31:50.935Z,5172
2017-10-23T10:32:52.764Z,5996
2017-10-23T10:33:54.647Z,6508
2017-10-23T10:34:56.540Z,6720
2017-10-23T10:35:58.436Z,7500
2017-10-23T10:37:12.595Z,8896
2017-10-23T10:38:14.481Z,9328
2017-10-23T10:39:16.383Z,9212
2017-10-23T10:40:18.270Z,8684
2017-10-23T10:41:20.095Z,7628
2017-10-23T10:42:21.921Z,6572
2017-10-23T10:43:23.806Z,5996
2017-10-23T10:44:25.690Z,5204
2017-10-23T10:45:27.612Z,4480
2017-10-23T10:46:41.817Z,4224
2017-10-23T10:47:43.704Z,4284
2017-10-23T10:48:45.590Z,4644
2017-10-23T10:49:47.474Z,4708
2017-10-23T10:50:49.305Z,4688
2017-10-23T10:51:51.130Z,5004
2017-10-23T10:52:53.012Z,5844
2017-10-23T10:53:54.896Z,6508
2017-10-23T10:54:56.784Z,7976
2017-10-23T10:56:10.948Z,8640
2017-10-23T10:57:12.828Z,9328
2017-10-23T10:58:14.712Z,9640
2017-10-23T10:59:16.601Z,9460
2017-10-23T11:00:18.428Z,9524
2017-10-23T11:01:20.256Z,9344
2017-10-23T11:02:22.143Z,8980
2017-10-23T11:03:24.027Z,8600
2017-10-23T11:04:25.913Z,8148
2017-10-23T11:05:40.085Z,7772
2017-10-23T11:06:41.970Z,7956
2017-10-23T11:07:43.866Z,8332
2017-10-23T11:08:45.769Z,8860
2017-10-23T11:09:47.593Z,9560
2017-10-23T11:10:49.418Z,10024
2017-10-23T11:11:51.301Z,9916
2017-10-23T11:12:53.186Z,9696
2017-10-23T11:13:55.075Z,9632
2017-10-23T11:15:09.236Z,9540
2017-10-23T11:16:11.120Z,9444
2017-10-23T11:17:13.006Z,9036
2017-10-23T11:18:14.894Z,8596
2017-10-23T11:19:16.726Z,8072
2017-10-23T11:20:18.553Z,7284
2017-10-23T11:21:20.376Z,7340
2017-10-23T11:22:22.199Z,7860
2017-10-23T11:23:24.023Z,7840
2017-10-23T11:24:38.186Z,8380
2017-10-23T11:25:40.074Z,7756
2017-10-23T11:26:41.958Z,7304
2017-10-23T11:27:43.851Z,6952
2017-10-23T11:28:45.677Z,6944
2017-10-23T11:29:47.503Z,5736
2017-10-23T11:30:49.388Z,4440
2017-10-23T11:31:51.287Z,4360
2017-10-23T11:32:53.172Z,4672
2017-10-23T11:34:07.324Z,5208
2017-10-23T11:35:09.163Z,4972
2017-10-23T11:36:10.986Z,5068
2017-10-23T11:37:12.817Z,4808
2017-10-23T11:38:14.643Z,5136
2017-10-23T11:39:16.533Z,5792
2017-10-23T11:40:18.419Z,6636
2017-10-23T11:41:20.282Z,7028
2017-10-23T11:42:22.106Z,7812
2017-10-23T11:43:36.264Z,8504
2017-10-23T11:44:38.146Z,9268
2017-10-23T11:45:40.043Z,9400
2017-10-23T11:46:41.943Z,9140
2017-10-23T11:47:43.771Z,8768
2017-10-23T11:48:45.607Z,8564
2017-10-23T11:49:47.489Z,8660
2017-10-23T11:50:49.377Z,8972
2017-10-23T11:51:51.274Z,9152
2017-10-23T11:53:05.436Z,9028
2017-10-23T11:54:07.332Z,8700
2017-10-23T11:55:09.216Z,8412
2017-10-23T11:56:11.105Z,8512
2017-10-23T11:57:12.931Z,8520
2017-10-23T11:58:14.760Z,8696
2017-10-23T11:59:16.653Z,8812
2017-10-23T12:00:18.538Z,8952
2017-10-23T12:01:20.422Z,8592
2017-10-23T12:02:34.585Z,7816
2017-10-23T12:03:36.475Z,7452
2017-10-23T12:04:38.356Z,7252
2017-10-23T12:05:40.283Z,6880
2017-10-23T12:06:42.076Z,6948
2017-10-23T12:07:43.903Z,7140
2017-10-23T12:08:45.786Z,7100
2017-10-23T12:09:47.672Z,7296
2017-10-23T12:10:49.578Z,7836
2017-10-23T12:12:03.846Z,8420
2017-10-23T12:13:05.784Z,8180
2017-10-23T12:14:07.675Z,8256
2017-10-23T12:15:09.665Z,7368
2017-10-23T12:16:11.539Z,7544
2017-10-23T12:17:13.378Z,7020
2017-10-23T12:18:15.270Z,5800
2017-10-23T12:19:17.196Z,5220
2017-10-23T12:20:19.156Z,4200
2017-10-23T12:21:33.340Z,5152
2017-10-23T12:22:35.209Z,5508
2017-10-23T12:23:37.092Z,5000
2017-10-23T12:24:38.979Z,5916
2017-10-23T12:25:40.895Z,7096
2017-10-23T12:26:42.772Z,7968
2017-10-23T12:27:44.658Z,8496
2017-10-23T12:28:46.544Z,8296
2017-10-23T12:29:48.429Z,7952
2017-10-23T12:31:02.958Z,7812
2017-10-23T12:32:04.992Z,7932
2017-10-23T12:33:06.950Z,7852
2017-10-23T12:34:08.920Z,7236
2017-10-23T12:35:10.749Z,6876
2017-10-23T12:36:12.577Z,7468
2017-10-23T12:37:14.466Z,7968
2017-10-23T12:38:16.350Z,7832
2017-10-23T12:39:18.356Z,8080
2017-10-23T12:40:32.599Z,8496
2017-10-23T12:41:34.502Z,8564
2017-10-23T12:42:36.450Z,8472
2017-10-23T12:43:38.335Z,8204
2017-10-23T12:44:40.161Z,7640
2017-10-23T12:45:41.988Z,7432
2017-10-23T12:46:43.873Z,7976
2017-10-23T12:47:46.042Z,8060
2017-10-23T12:48:47.989Z,8024
2017-10-23T12:50:02.224Z,7624
2017-10-23T12:51:04.106Z,7340
2017-10-23T12:52:05.992Z,6828
2017-10-23T12:53:07.877Z,6440
2017-10-23T12:54:09.703Z,6464
2017-10-23T12:55:11.529Z,6108
2017-10-23T12:56:13.413Z,5532
2017-10-23T12:57:15.300Z,4876
2017-10-23T12:58:17.362Z,4260
2017-10-23T12:59:31.823Z,4604
2017-10-23T13:00:33.776Z,4500
2017-10-23T13:01:35.669Z,3896
2017-10-23T13:02:37.578Z,3120
2017-10-23T13:03:39.424Z,3084
2017-10-23T13:04:41.277Z,2952
2017-10-23T13:05:43.164Z,2984
2017-10-23T13:06:45.053Z,3612
2017-10-23T13:07:46.967Z,4288
2017-10-23T13:09:01.209Z,4380
2017-10-23T13:10:03.097Z,4332
2017-10-23T13:11:05.064Z,4456
2017-10-23T13:12:06.949Z,5036
2017-10-23T13:13:08.818Z,4868
2017-10-23T13:14:10.820Z,4156
2017-10-23T13:15:12.725Z,3548
2017-10-23T13:16:14.622Z,3376
2017-10-23T13:17:16.533Z,3304
2017-10-23T13:18:31.086Z,3500
2017-10-23T13:19:33.043Z,3708
2017-10-23T13:20:34.930Z,4200
2017-10-23T13:21:36.815Z,4836
2017-10-23T13:22:38.640Z,4100
2017-10-23T13:23:40.558Z,3180
2017-10-23T13:24:42.484Z,2708
2017-10-23T13:25:44.762Z,2776
2017-10-23T13:26:46.703Z,2776
2017-10-23T13:28:00.864Z,2328
2017-10-23T13:29:02.747Z,2180
2017-10-23T13:30:04.997Z,2048
2017-10-23T13:31:06.881Z,2412
2017-10-23T13:32:08.706Z,2876
2017-10-23T13:33:10.541Z,2880
2017-10-23T13:34:12.428Z,2972
2017-10-23T13:35:14.319Z,2836
2017-10-23T13:36:16.160Z,2780
2017-10-23T13:37:30.321Z,3388
2017-10-23T13:38:32.210Z,3176
2017-10-23T13:39:34.189Z,2876
2017-10-23T13:40:36.045Z,2932
2017-10-23T13:41:37.872Z,3292
2017-10-23T13:42:39.792Z,3548
2017-10-23T13:43:41.774Z,4024
2017-10-23T13:44:43.656Z,4368
2017-10-23T13:45:45.924Z,4208
2017-10-23T13:47:00.129Z,3780
2017-10-23T13:48:02.008Z,3196
2017-10-23T13:49:03.895Z,2808
2017-10-23T13:50:05.785Z,2900
2017-10-23T13:51:07.628Z,3024
2017-10-23T13:52:09.454Z,3008
2017-10-23T13:53:11.719Z,3264
2017-10-23T13:54:13.627Z,3452
2017-10-23T13:55:15.517Z,3224
2017-10-23T13:56:29.685Z,3076
2017-10-23T13:57:31.584Z,3580
2017-10-23T13:58:33.465Z,3908
2017-10-23T13:59:35.361Z,3880
2017-10-23T14:00:37.184Z,3892
2017-10-23T14:01:39.010Z,3968
2017-10-23T14:02:40.902Z,3628
2017-10-23T14:03:42.795Z,3304
2017-10-23T14:04:44.698Z,3340
2017-10-23T14:05:58.913Z,3564
2017-10-23T14:07:00.806Z,3532
2017-10-23T14:08:02.690Z,3536
2017-10-23T14:09:04.576Z,3732
2017-10-23T14:10:06.416Z,4040
2017-10-23T14:11:08.255Z,4460
2017-10-23T14:12:10.128Z,4564
2017-10-23T14:13:12.008Z,4380
2017-10-23T14:14:13.896Z,4140
2017-10-23T14:15:28.060Z,3476
2017-10-23T14:16:29.960Z,3296
2017-10-23T14:17:31.833Z,2788
2017-10-23T14:18:33.734Z,2500
2017-10-23T14:19:35.561Z,2620
2017-10-23T14:20:37.385Z,3036
2017-10-23T14:21:39.283Z,3092
2017-10-23T14:22:41.166Z,2796
2017-10-23T14:23:43.051Z,2572
2017-10-23T14:24:57.221Z,2460
2017-10-23T14:25:59.102Z,2176
2017-10-23T14:27:00.986Z,2188
2017-10-23T14:28:02.885Z,2152
2017-10-23T14:29:04.696Z,1836
2017-10-23T14:30:06.522Z,1780
2017-10-23T14:31:08.412Z,1660
2017-10-23T14:32:10.297Z,1532
2017-10-23T14:33:12.193Z,1532
2017-10-23T14:34:26.352Z,1520
2017-10-23T14:35:28.235Z,1372
2017-10-23T14:36:30.114Z,1344
2017-10-23T14:37:32.313Z,1324